Ana Sayfa
METAR-TAF:

METAR-TAF

Havaalanları :

Grosse Ile Municipal Airport

Detroit / Grosse Ile, Michigan, Amerika Birleşik Devletleri

Enlem: 42-05-55N, Boylam: 083-09-40W, yükseklik: 180 m

Güncel hava durumu gözlemi

Rapor saat 10:55 UTC de 5 dakika önce yapıldı.
Sakin rüzgar
Sıcaklık 10°C
Nem 93%
Basınç 1019 hPa
Görüş mesafesi: 6.4 km
Açık gökyüzü
Pus

METAR: KONZ 271055Z AUTO 00000KT 4SM BR CLR 10/09 A3009 RMK AO2 T00950092

Saat: 07:00 (11:00 UTC)


TAF: eksik

4.000'den fazla havaalanı için hava durumu gözlemleri ve tahminleri (METAR ve TAF raporları).

Kullanılabilir istasyonlar harita üzerinde sarı ve kırmızı noktalarla gösterilir.

İstasyonun adını görmek için fareyi noktanın üzerinde gezdirin.

Sonrasında hava gözlem ve tahminlerini görmek için tıklayın.

Haritayı değiştirmek için: yaklaştırmak için siyah artı işaretli yeşil düğmeye ve uzaklaştırmak için de eksi işaretli düğmeye hızla tıklayın; bitişik haritalar için yeşil okları kullanın.


METAR-TAF: